createdAt,value
2018-07-16T00:01:37.924Z,97299.80
2018-07-16T00:04:06.854Z,97318.05
2018-07-16T00:06:35.330Z,97279.50
2018-07-16T00:09:04.309Z,97324.14
2018-07-16T00:11:32.852Z,97309.94
2018-07-16T00:14:01.321Z,97332.25
2018-07-16T00:16:29.866Z,97323.13
2018-07-16T00:18:58.521Z,97317.03
2018-07-16T00:21:27.465Z,97331.23
2018-07-16T00:23:55.982Z,97354.58
2018-07-16T00:26:24.589Z,97398.20
2018-07-16T00:28:53.110Z,97352.55
2018-07-16T00:31:21.578Z,97374.86
2018-07-16T00:33:50.105Z,97413.42
2018-07-16T00:36:18.590Z,97407.33
2018-07-16T00:38:47.098Z,97396.17
2018-07-16T00:41:15.613Z,97416.46
2018-07-16T00:43:44.119Z,97450.95
2018-07-16T00:46:12.603Z,97417.48
2018-07-16T00:48:41.106Z,97424.58
2018-07-16T00:51:09.606Z,97411.39
2018-07-16T00:53:38.260Z,97450.95
2018-07-16T00:56:07.217Z,97462.12
2018-07-16T00:58:35.696Z,97456.03
2018-07-16T01:01:04.172Z,97440.81
2018-07-16T01:03:32.649Z,97479.36
2018-07-16T01:06:01.148Z,97481.39
2018-07-16T01:08:30.215Z,97479.36
2018-07-16T01:10:58.743Z,97460.09
2018-07-16T01:13:27.220Z,97461.10
2018-07-16T01:15:55.750Z,97496.61
2018-07-16T01:18:24.340Z,97516.91
2018-07-16T01:20:52.837Z,97552.41
2018-07-16T01:23:21.351Z,97556.47
2018-07-16T01:25:49.936Z,97507.77
2018-07-16T01:28:18.417Z,97537.20
2018-07-16T01:30:47.034Z,97538.20
2018-07-16T01:33:15.869Z,97517.92
2018-07-16T01:35:44.467Z,97533.14
2018-07-16T01:38:12.944Z,97529.08
2018-07-16T01:40:41.447Z,97572.70
2018-07-16T01:43:10.013Z,97550.38
2018-07-16T01:45:38.571Z,97566.62
2018-07-16T01:48:07.208Z,97587.92
2018-07-16T01:50:35.729Z,97564.59
2018-07-16T01:53:04.234Z,97593.00
2018-07-16T01:55:32.757Z,97564.59
2018-07-16T01:58:01.338Z,97597.05
2018-07-16T02:00:29.868Z,97625.46
2018-07-16T02:02:58.345Z,97575.75
2018-07-16T02:05:26.862Z,97576.77
2018-07-16T02:07:55.352Z,97620.39
2018-07-16T02:10:23.880Z,97619.38
2018-07-16T02:12:53.066Z,97587.92
2018-07-16T02:15:21.599Z,97618.36
2018-07-16T02:17:50.079Z,97571.69
2018-07-16T02:20:18.574Z,97628.50
2018-07-16T02:22:47.057Z,97609.23
2018-07-16T02:25:15.524Z,97627.48
2018-07-16T02:27:44.049Z,97644.74
2018-07-16T02:30:12.569Z,97644.74
2018-07-16T02:32:41.018Z,97647.78
2018-07-16T02:35:09.524Z,97655.90
2018-07-16T02:37:38.101Z,97678.22
2018-07-16T02:40:06.737Z,97719.82
2018-07-16T02:42:35.220Z,97658.95
2018-07-16T02:45:03.686Z,97684.31
2018-07-16T02:47:32.194Z,97698.52
2018-07-16T02:50:00.817Z,97683.30
2018-07-16T02:52:29.657Z,97688.37
2018-07-16T02:54:58.114Z,97695.47
2018-07-16T02:57:26.822Z,97733.02
2018-07-16T02:59:55.299Z,97757.36
2018-07-16T03:02:23.841Z,97693.44
2018-07-16T03:04:52.459Z,97714.75
2018-07-16T03:07:20.976Z,97744.17
2018-07-16T03:09:49.535Z,97749.25
2018-07-16T03:12:18.064Z,97726.92
2018-07-16T03:14:46.558Z,97732.00
2018-07-16T03:17:15.560Z,97802.01
2018-07-16T03:19:44.115Z,97812.16
2018-07-16T03:22:12.619Z,97784.76
2018-07-16T03:24:41.133Z,97793.89
2018-07-16T03:27:10.142Z,97810.12
2018-07-16T03:29:38.683Z,97804.03
2018-07-16T03:32:07.311Z,97762.44
2018-07-16T03:34:35.853Z,97779.69
2018-07-16T03:37:04.358Z,97776.64
2018-07-16T03:39:32.856Z,97807.08
2018-07-16T03:42:01.576Z,97815.20
2018-07-16T03:44:30.289Z,97861.88
2018-07-16T03:46:59.507Z,97855.78
2018-07-16T03:49:28.048Z,97879.12
2018-07-16T03:51:56.586Z,97897.39
2018-07-16T03:54:25.463Z,97844.63
2018-07-16T03:56:53.989Z,97793.89
2018-07-16T03:59:22.609Z,97799.98
2018-07-16T04:01:51.252Z,97805.05
2018-07-16T04:04:19.776Z,97803.02
2018-07-16T04:06:48.263Z,97811.14
2018-07-16T04:09:16.958Z,97791.86
2018-07-16T04:11:45.562Z,97780.70
2018-07-16T04:14:14.117Z,97748.23
2018-07-16T04:16:42.751Z,97736.05
2018-07-16T04:19:11.278Z,97737.07
2018-07-16T04:21:39.952Z,97703.59
2018-07-16T04:24:08.631Z,97649.81
2018-07-16T04:26:37.238Z,97684.31
2018-07-16T04:29:05.907Z,97676.19
2018-07-16T04:31:34.494Z,97627.48
2018-07-16T04:34:03.024Z,97616.33
2018-07-16T04:36:31.654Z,97610.24
2018-07-16T04:39:00.330Z,97568.64
2018-07-16T04:41:28.862Z,97585.89
2018-07-16T04:43:58.273Z,97547.34
2018-07-16T04:46:26.798Z,97595.02
2018-07-16T04:48:55.298Z,97634.59
2018-07-16T04:51:23.904Z,97553.42
2018-07-16T04:53:52.468Z,97582.84
2018-07-16T04:56:21.063Z,97566.62
2018-07-16T04:58:49.578Z,97571.69
2018-07-16T05:01:18.057Z,97508.78
2018-07-16T05:03:46.663Z,97500.67
2018-07-16T05:06:15.211Z,97381.97
2018-07-16T05:08:43.784Z,97177.04
2018-07-16T05:11:12.297Z,96917.34
2018-07-16T05:13:40.901Z,96760.12
2018-07-16T05:16:09.469Z,96920.39
2018-07-16T05:18:38.330Z,96648.55
2018-07-16T05:21:06.877Z,96462.93
2018-07-16T05:23:36.386Z,96508.57
2018-07-16T05:26:05.007Z,96470.03
2018-07-16T05:28:34.566Z,96277.33
2018-07-16T05:31:03.093Z,96256.02
2018-07-16T05:33:31.988Z,96154.61
2018-07-16T05:36:00.494Z,95959.89
2018-07-16T05:38:29.006Z,96000.45
2018-07-16T05:40:57.518Z,95885.86
2018-07-16T05:43:26.027Z,95628.30
2018-07-16T05:45:54.576Z,95865.58
2018-07-16T05:48:23.098Z,95745.92
2018-07-16T05:50:51.736Z,96245.88
2018-07-16T05:53:20.295Z,96049.13
2018-07-16T05:55:48.790Z,96534.94
2018-07-16T05:58:17.414Z,96180.98
2018-07-16T06:00:46.878Z,96603.91
2018-07-16T06:03:15.477Z,96444.67
2018-07-16T06:05:44.092Z,96375.70
2018-07-16T06:08:12.606Z,96462.93
2018-07-16T06:10:41.155Z,95956.85
2018-07-16T06:13:09.702Z,96445.69
2018-07-16T06:15:38.199Z,96381.79
2018-07-16T06:18:06.715Z,96440.61
2018-07-16T06:20:35.310Z,96318.91
2018-07-16T06:23:03.909Z,96285.44
2018-07-16T06:25:32.461Z,95637.42
2018-07-16T06:28:01.098Z,95785.47
2018-07-16T06:30:29.779Z,96059.28
2018-07-16T06:32:58.991Z,96213.43
2018-07-16T06:35:27.502Z,95764.17
2018-07-16T06:37:56.133Z,96091.73
2018-07-16T06:40:24.881Z,96155.62
2018-07-16T06:42:53.611Z,95841.25
2018-07-16T06:45:22.149Z,96245.88
2018-07-16T06:47:50.806Z,96192.13
2018-07-16T06:50:19.346Z,95861.52
2018-07-16T06:52:47.864Z,95555.28
2018-07-16T06:55:16.453Z,95980.17
2018-07-16T06:57:44.982Z,95555.28
2018-07-16T07:00:13.516Z,95802.70
2018-07-16T07:02:42.039Z,95669.87
2018-07-16T07:05:10.674Z,95593.81
2018-07-16T07:07:39.227Z,95899.05
2018-07-16T07:10:07.779Z,95691.16
2018-07-16T07:12:36.338Z,95532.98
2018-07-16T07:15:04.890Z,95671.90
2018-07-16T07:17:33.438Z,95852.40
2018-07-16T07:20:02.287Z,95901.08
2018-07-16T07:22:30.848Z,96003.50
2018-07-16T07:24:59.527Z,96067.39
2018-07-16T07:27:28.103Z,96003.50
2018-07-16T07:29:56.664Z,95975.10
2018-07-16T07:32:26.449Z,95995.39
2018-07-16T07:34:55.127Z,96067.39
2018-07-16T07:37:23.898Z,95984.23
2018-07-16T07:39:52.462Z,96052.18
2018-07-16T07:42:20.966Z,96088.69
2018-07-16T07:44:49.550Z,96016.69
2018-07-16T07:47:18.045Z,95877.75
2018-07-16T07:49:46.708Z,95911.22
2018-07-16T07:52:15.587Z,95986.26
2018-07-16T07:54:44.301Z,95998.43
2018-07-16T07:57:12.695Z,96034.94
2018-07-16T07:59:41.235Z,95973.08
2018-07-16T08:02:10.006Z,96057.25
2018-07-16T08:04:38.902Z,96010.59
2018-07-16T08:07:11.514Z,95954.83
2018-07-16T08:09:41.479Z,95943.67
2018-07-16T08:12:11.109Z,95899.05
2018-07-16T08:14:40.110Z,95918.31
2018-07-16T08:17:08.715Z,95860.52
2018-07-16T08:19:37.253Z,95875.72
2018-07-16T08:22:05.791Z,95850.37
2018-07-16T08:24:34.341Z,95901.08
2018-07-16T08:27:02.918Z,95787.50
2018-07-16T08:29:31.574Z,95790.54
2018-07-16T08:32:00.095Z,95778.37
2018-07-16T08:34:29.119Z,95777.36
2018-07-16T08:36:57.754Z,95741.87
2018-07-16T08:39:26.343Z,95683.05
2018-07-16T08:41:55.016Z,95641.47
2018-07-16T08:44:23.523Z,95517.77
2018-07-16T08:46:52.024Z,95571.51
2018-07-16T08:49:20.667Z,95600.92
2018-07-16T08:51:49.174Z,95546.16
2018-07-16T08:54:17.901Z,95600.92
2018-07-16T08:56:46.791Z,95568.47
2018-07-16T08:59:15.466Z,95603.95
2018-07-16T09:01:44.013Z,95579.63
2018-07-16T09:04:12.687Z,95530.95
2018-07-16T09:06:42.235Z,95533.99
2018-07-16T09:09:10.777Z,95432.59
2018-07-16T09:11:39.467Z,95529.94
2018-07-16T09:14:08.040Z,95579.63
2018-07-16T09:16:36.595Z,95531.97
2018-07-16T09:19:05.100Z,95509.66
2018-07-16T09:21:33.737Z,95509.66
2018-07-16T09:24:02.262Z,95572.52
2018-07-16T09:26:30.753Z,95451.86
2018-07-16T09:28:59.344Z,95380.88
2018-07-16T09:31:27.939Z,95328.16
2018-07-16T09:33:56.401Z,95379.88
2018-07-16T09:36:25.102Z,95382.91
2018-07-16T09:38:53.639Z,95299.77
2018-07-16T09:41:22.371Z,95347.42
2018-07-16T09:43:50.890Z,95308.89
2018-07-16T09:46:19.607Z,95193.31
2018-07-16T09:48:48.096Z,95203.45
2018-07-16T09:51:16.654Z,95190.27
2018-07-16T09:53:45.158Z,95378.86
2018-07-16T09:56:13.857Z,95276.45
2018-07-16T09:58:42.357Z,95240.96
2018-07-16T10:01:16.061Z,95314.98
2018-07-16T10:03:44.637Z,95236.91
2018-07-16T10:06:13.191Z,95165.94
2018-07-16T10:08:41.768Z,95165.94
2018-07-16T10:11:10.339Z,95053.39
2018-07-16T10:13:38.880Z,95060.49
2018-07-16T10:16:07.522Z,95154.78
2018-07-16T10:18:36.030Z,95158.84
2018-07-16T10:21:04.558Z,95118.28
2018-07-16T10:23:33.116Z,95130.45
2018-07-16T10:26:01.695Z,95134.50
2018-07-16T10:28:30.239Z,95120.31
2018-07-16T10:30:58.758Z,95048.33
2018-07-16T10:33:27.294Z,95055.42
2018-07-16T10:35:55.939Z,95071.64
2018-07-16T10:38:24.564Z,95184.19
2018-07-16T10:40:53.063Z,95130.45
2018-07-16T10:43:22.159Z,95202.44
2018-07-16T10:45:51.038Z,95073.67
2018-07-16T10:48:19.618Z,95061.50
2018-07-16T10:50:48.195Z,94957.08
2018-07-16T10:53:16.707Z,94979.38
2018-07-16T10:55:45.790Z,95106.11
2018-07-16T10:58:14.286Z,95294.70
2018-07-16T11:00:42.839Z,95082.80
2018-07-16T11:03:11.653Z,94913.48
2018-07-16T11:05:40.270Z,94949.98
2018-07-16T11:08:08.866Z,95026.02
2018-07-16T11:10:37.354Z,95025.01
2018-07-16T11:13:05.954Z,95040.22
2018-07-16T11:15:34.510Z,95021.97
2018-07-16T11:18:03.060Z,94962.15
2018-07-16T11:20:31.638Z,95003.72
2018-07-16T11:23:00.230Z,95048.33
2018-07-16T11:25:28.760Z,94972.29
2018-07-16T11:27:57.302Z,94840.50
2018-07-16T11:30:25.824Z,94901.32
2018-07-16T11:32:54.345Z,94916.53
2018-07-16T11:35:22.872Z,94808.05
2018-07-16T11:37:51.778Z,94865.84
2018-07-16T11:40:20.280Z,94711.75
2018-07-16T11:42:49.497Z,94719.86
2018-07-16T11:45:18.071Z,94740.13
2018-07-16T11:47:46.561Z,94845.56
2018-07-16T11:50:15.138Z,94788.80
2018-07-16T11:52:43.640Z,94858.74
2018-07-16T11:55:12.202Z,94882.06
2018-07-16T11:57:40.764Z,94841.51
2018-07-16T12:00:09.339Z,94740.13
2018-07-16T12:02:37.895Z,94704.65
2018-07-16T12:05:06.408Z,94640.78
2018-07-16T12:07:34.926Z,94707.69
2018-07-16T12:10:03.717Z,94820.22
2018-07-16T12:12:32.298Z,94712.76
2018-07-16T12:15:00.814Z,94625.58
2018-07-16T12:17:29.513Z,94584.02
2018-07-16T12:19:58.034Z,94604.29
2018-07-16T12:22:26.554Z,94488.73
2018-07-16T12:24:55.115Z,94459.33
2018-07-16T12:27:23.682Z,94535.36
2018-07-16T12:29:52.495Z,94551.58
2018-07-16T12:32:21.054Z,94427.91
2018-07-16T12:34:49.641Z,94460.34
2018-07-16T12:37:18.135Z,94432.98
2018-07-16T12:39:46.744Z,94383.31
2018-07-16T12:42:15.479Z,94340.73
2018-07-16T12:44:43.958Z,94267.75
2018-07-16T12:47:12.512Z,94336.68
2018-07-16T12:49:41.532Z,94369.12
2018-07-16T12:52:10.188Z,94375.20
2018-07-16T12:54:38.707Z,94481.63
2018-07-16T12:57:07.322Z,94442.09
2018-07-16T12:59:35.804Z,94441.09
2018-07-16T13:02:04.365Z,94601.25
2018-07-16T13:04:32.950Z,94461.36
2018-07-16T13:07:01.435Z,94457.30
2018-07-16T13:09:29.969Z,94373.17
2018-07-16T13:11:58.536Z,94239.37
2018-07-16T13:14:27.106Z,94119.77
2018-07-16T13:16:55.647Z,94208.97
2018-07-16T13:19:24.218Z,94204.91
2018-07-16T13:21:52.768Z,94226.20
2018-07-16T13:24:21.271Z,94229.23
2018-07-16T13:26:49.875Z,94159.30
2018-07-16T13:29:18.375Z,94143.08
2018-07-16T13:31:46.890Z,94142.06
2018-07-16T13:34:15.434Z,94294.11
2018-07-16T13:36:43.931Z,94344.79
2018-07-16T13:39:12.628Z,94173.48
2018-07-16T13:41:41.190Z,94244.44
2018-07-16T13:44:09.830Z,94399.52
2018-07-16T13:46:38.403Z,94321.48
2018-07-16T13:49:06.906Z,94323.50
2018-07-16T13:51:35.449Z,94242.41
2018-07-16T13:54:03.941Z,94157.27
2018-07-16T13:56:32.425Z,94208.97
2018-07-16T13:59:00.979Z,94159.30
2018-07-16T14:01:29.509Z,94193.77
2018-07-16T14:03:58.130Z,94163.35
2018-07-16T14:06:26.650Z,94180.59
2018-07-16T14:08:55.212Z,94196.80
2018-07-16T14:11:23.724Z,94218.09
2018-07-16T14:13:52.237Z,94281.95
2018-07-16T14:16:20.788Z,94235.32
2018-07-16T14:18:49.329Z,94184.64
2018-07-16T14:21:17.839Z,94090.38
2018-07-16T14:23:46.354Z,94043.75
2018-07-16T14:26:14.876Z,94056.92
2018-07-16T14:28:43.467Z,94207.95
2018-07-16T14:31:11.997Z,94113.69
2018-07-16T14:33:40.536Z,94035.64
2018-07-16T14:36:09.120Z,94407.64
2018-07-16T14:38:37.649Z,94402.56
2018-07-16T14:41:06.230Z,94478.59
2018-07-16T14:43:34.777Z,94467.44
2018-07-16T14:46:03.333Z,94312.35
2018-07-16T14:48:31.838Z,94077.20
2018-07-16T14:51:00.387Z,93939.36
2018-07-16T14:53:28.914Z,94033.61
2018-07-16T14:55:57.494Z,94003.20
2018-07-16T14:58:26.018Z,94067.06
2018-07-16T15:00:54.533Z,94200.86
2018-07-16T15:03:23.300Z,94252.55
2018-07-16T15:05:51.939Z,94443.11
2018-07-16T15:08:21.565Z,94410.67
2018-07-16T15:10:50.040Z,94525.22
2018-07-16T15:13:18.610Z,94519.14
2018-07-16T15:15:47.371Z,94541.44
2018-07-16T15:18:15.962Z,94583.00
2018-07-16T15:20:44.745Z,94591.11
2018-07-16T15:23:13.023Z,94630.65
2018-07-16T15:25:41.699Z,94509.00
2018-07-16T15:28:11.194Z,94488.73
2018-07-16T15:30:39.927Z,94241.40
2018-07-16T15:33:08.529Z,94215.05
2018-07-16T15:35:37.091Z,94184.64
2018-07-16T15:38:05.944Z,94177.54
2018-07-16T15:40:34.537Z,94045.78
2018-07-16T15:43:03.070Z,94090.38
2018-07-16T15:45:31.765Z,94248.50
2018-07-16T15:48:00.292Z,94443.11
2018-07-16T15:50:28.845Z,94480.62
2018-07-16T15:52:57.418Z,94500.89
2018-07-16T15:55:26.013Z,94527.25
2018-07-16T15:57:54.551Z,94603.28
2018-07-16T16:00:23.088Z,94506.98
2018-07-16T16:02:51.663Z,94387.36
2018-07-16T16:05:20.913Z,94262.69
2018-07-16T16:07:49.520Z,94243.42
2018-07-16T16:10:18.038Z,94179.57
2018-07-16T16:12:46.571Z,94045.78
2018-07-16T16:15:15.197Z,94013.34
2018-07-16T16:17:43.790Z,94209.98
2018-07-16T16:20:12.335Z,94282.95
2018-07-16T16:22:40.891Z,94277.89
2018-07-16T16:25:09.531Z,94306.27
2018-07-16T16:27:38.032Z,94257.62
2018-07-16T16:30:07.372Z,94220.11
2018-07-16T16:32:36.017Z,94235.32
2018-07-16T16:35:04.872Z,94263.70
2018-07-16T16:37:33.531Z,94185.66
2018-07-16T16:40:02.227Z,94155.24
2018-07-16T16:42:30.745Z,94118.75
2018-07-16T16:44:59.430Z,94192.75
2018-07-16T16:47:27.936Z,94190.72
2018-07-16T16:49:56.926Z,94206.94
2018-07-16T16:52:25.434Z,94150.17
2018-07-16T16:54:53.979Z,94161.33
2018-07-16T16:57:22.523Z,94184.64
2018-07-16T16:59:51.046Z,94094.43
2018-07-16T17:02:19.600Z,94186.66
2018-07-16T17:04:48.125Z,94271.81
2018-07-16T17:07:16.619Z,94230.25
2018-07-16T17:09:45.183Z,94188.69
2018-07-16T17:12:13.699Z,94188.69
2018-07-16T17:14:42.259Z,94260.66
2018-07-16T17:17:10.914Z,94172.47
2018-07-16T17:19:39.474Z,94180.59
2018-07-16T17:22:08.064Z,94255.59
2018-07-16T17:24:36.569Z,94171.46
2018-07-16T17:27:05.578Z,94182.61
2018-07-16T17:29:34.049Z,94161.33
2018-07-16T17:32:02.587Z,94203.89
2018-07-16T17:34:31.111Z,94346.81
2018-07-16T17:36:59.725Z,94332.63
2018-07-16T17:39:28.313Z,94398.52
2018-07-16T17:41:56.798Z,94455.28
2018-07-16T17:44:25.287Z,94423.86
2018-07-16T17:46:53.840Z,94441.09
2018-07-16T17:49:22.459Z,94425.88
2018-07-16T17:51:51.356Z,94399.52
2018-07-16T17:54:19.981Z,94448.19
2018-07-16T17:56:48.567Z,94425.88
2018-07-16T17:59:17.228Z,94357.97
2018-07-16T18:01:45.799Z,94253.56
2018-07-16T18:04:14.292Z,94010.30
2018-07-16T18:06:43.354Z,93831.92
2018-07-16T18:09:11.837Z,93696.13
2018-07-16T18:11:40.338Z,93424.53
2018-07-16T18:14:08.929Z,93824.83
2018-07-16T18:16:37.448Z,93834.97
2018-07-16T18:19:05.953Z,93467.09
2018-07-16T18:21:34.498Z,93787.33
2018-07-16T18:24:03.034Z,94120.78
2018-07-16T18:26:31.583Z,94226.20
2018-07-16T18:29:00.080Z,94356.95
2018-07-16T18:31:28.610Z,94346.81
2018-07-16T18:33:57.229Z,94516.10
2018-07-16T18:36:25.793Z,94579.96
2018-07-16T18:38:54.326Z,94662.08
2018-07-16T18:41:22.802Z,94618.48
2018-07-16T18:43:51.307Z,94621.52
2018-07-16T18:46:19.860Z,94672.21
2018-07-16T18:48:48.356Z,94733.03
2018-07-16T18:51:16.878Z,94820.22
2018-07-16T18:53:45.537Z,94864.83
2018-07-16T18:56:14.041Z,94907.41
2018-07-16T18:58:42.558Z,94865.84
2018-07-16T19:01:11.697Z,94864.83
2018-07-16T19:03:40.359Z,94900.31
2018-07-16T19:06:08.818Z,94927.68
2018-07-16T19:08:37.817Z,94915.52
2018-07-16T19:11:06.437Z,94967.22
2018-07-16T19:13:35.035Z,95012.84
2018-07-16T19:16:03.671Z,95003.72
2018-07-16T19:18:32.201Z,95071.64
2018-07-16T19:21:00.741Z,95077.73
2018-07-16T19:23:29.310Z,95128.42
2018-07-16T19:25:57.812Z,95155.80
2018-07-16T19:28:26.391Z,95259.21
2018-07-16T19:30:55.039Z,95239.95
2018-07-16T19:33:23.666Z,95286.59
2018-07-16T19:35:52.205Z,95352.49
2018-07-16T19:38:20.760Z,95392.04
2018-07-16T19:40:49.306Z,95456.93
2018-07-16T19:43:17.880Z,95477.21
2018-07-16T19:45:46.474Z,95491.41
2018-07-16T19:48:15.083Z,95521.83
2018-07-16T19:50:43.726Z,95564.41
2018-07-16T19:53:12.627Z,95617.14
2018-07-16T19:55:41.150Z,95732.73
2018-07-16T19:58:09.980Z,95699.28
2018-07-16T20:00:38.467Z,95663.78
2018-07-16T20:03:07.510Z,95764.17
2018-07-16T20:05:36.564Z,95824.00
2018-07-16T20:08:05.134Z,95819.95
2018-07-16T20:10:34.282Z,95821.98
2018-07-16T20:13:02.805Z,95810.82
2018-07-16T20:15:31.392Z,95832.12
2018-07-16T20:17:59.881Z,95874.70
2018-07-16T20:20:28.385Z,95874.70
2018-07-16T20:22:57.118Z,95864.56
2018-07-16T20:25:25.645Z,95890.94
2018-07-16T20:27:54.251Z,95878.77
2018-07-16T20:30:23.113Z,95900.06
2018-07-16T20:32:51.664Z,95943.67
2018-07-16T20:35:20.266Z,95904.12
2018-07-16T20:37:48.859Z,95942.66
2018-07-16T20:40:17.583Z,95960.91
2018-07-16T20:42:46.074Z,95953.81
2018-07-16T20:45:15.245Z,95989.30
2018-07-16T20:47:43.974Z,95965.98
2018-07-16T20:50:12.710Z,96007.55
2018-07-16T20:52:41.198Z,95986.26
2018-07-16T20:55:09.709Z,95947.72
2018-07-16T20:57:38.222Z,95959.89
2018-07-16T21:00:06.782Z,95994.38
2018-07-16T21:02:35.701Z,96007.55
2018-07-16T21:05:04.293Z,96023.78
2018-07-16T21:07:32.898Z,96059.28
2018-07-16T21:10:01.475Z,96041.02
2018-07-16T21:12:30.769Z,96116.07
2018-07-16T21:14:59.334Z,96093.76
2018-07-16T21:17:27.850Z,96083.62
2018-07-16T21:19:56.343Z,96084.63
2018-07-16T21:22:24.938Z,96151.56
2018-07-16T21:24:53.474Z,96156.64
2018-07-16T21:27:21.978Z,96164.75
2018-07-16T21:29:50.518Z,96139.39
2018-07-16T21:32:19.738Z,96188.08
2018-07-16T21:34:48.398Z,96197.20
2018-07-16T21:39:58.761Z,96200.25
2018-07-16T21:42:27.418Z,96209.38
2018-07-16T21:44:56.024Z,96304.70
2018-07-16T21:47:24.810Z,96266.17
2018-07-16T21:49:53.423Z,96264.14
2018-07-16T21:52:22.177Z,96289.49
2018-07-16T21:54:51.111Z,96280.37
2018-07-16T21:57:19.605Z,96299.64
2018-07-16T21:59:48.109Z,96309.78
2018-07-16T22:02:16.695Z,96285.44
2018-07-16T22:04:45.246Z,96290.52
2018-07-16T22:07:14.136Z,96316.88
2018-07-16T22:09:42.633Z,96345.27
2018-07-16T22:12:11.159Z,96340.20
2018-07-16T22:14:39.802Z,96345.27
2018-07-16T22:17:08.326Z,96344.27
2018-07-16T22:19:36.964Z,96399.03
2018-07-16T22:22:05.514Z,96407.14
2018-07-16T22:24:34.077Z,96400.05
2018-07-16T22:27:02.647Z,96455.83
2018-07-16T22:29:31.287Z,96416.27
2018-07-16T22:31:59.870Z,96457.86
2018-07-16T22:34:28.396Z,96433.52
2018-07-16T22:36:56.882Z,96444.67
2018-07-16T22:39:25.403Z,96472.05
2018-07-16T22:41:53.990Z,96497.41
2018-07-16T22:44:22.709Z,96532.91
2018-07-16T22:46:51.287Z,96528.86
2018-07-16T22:49:20.845Z,96504.52
2018-07-16T22:51:49.718Z,96507.55
2018-07-16T22:54:18.380Z,96575.52
2018-07-16T22:56:46.919Z,96585.66
2018-07-16T22:59:15.730Z,96635.36
2018-07-16T23:01:44.213Z,96533.92
2018-07-16T23:04:13.175Z,96571.45
2018-07-16T23:06:41.681Z,96619.13
2018-07-16T23:09:10.205Z,96602.90
2018-07-16T23:11:38.779Z,96667.81
2018-07-16T23:14:07.285Z,96641.44
2018-07-16T23:16:35.761Z,96637.38
2018-07-16T23:19:04.277Z,96636.38
2018-07-16T23:21:32.805Z,96694.19
2018-07-16T23:24:01.437Z,96679.98
2018-07-16T23:26:29.984Z,96700.27
2018-07-16T23:28:59.482Z,96717.52
2018-07-16T23:31:27.930Z,96699.26
2018-07-16T23:33:56.601Z,96689.12
2018-07-16T23:36:25.167Z,96725.63
2018-07-16T23:38:53.746Z,96736.79
2018-07-16T23:41:22.236Z,96761.13
2018-07-16T23:43:50.780Z,96740.84
2018-07-16T23:46:20.198Z,96758.09
2018-07-16T23:48:48.697Z,96747.95
2018-07-16T23:51:17.230Z,96788.52
2018-07-16T23:53:45.773Z,96838.22
2018-07-16T23:56:14.334Z,96837.20
2018-07-16T23:58:42.868Z,96793.59
